createdAt,value
2023-01-01T00:00:00.912Z,0.225
2023-01-01T00:01:00.678Z,0.225
2023-01-01T00:02:00.695Z,0.225
2023-01-01T00:03:00.614Z,0.225
2023-01-01T00:04:00.777Z,0.225
2023-01-01T00:05:00.630Z,0.225
2023-01-01T00:06:00.752Z,0.225
2023-01-01T00:07:00.636Z,0.225
2023-01-01T00:08:04.664Z,0.225
2023-01-01T00:09:00.670Z,0.225
2023-01-01T00:10:00.645Z,0.225
2023-01-01T00:11:00.609Z,0.225
2023-01-01T00:12:00.794Z,0.270
2023-01-01T00:13:00.672Z,0.225
2023-01-01T00:14:00.638Z,0.225
2023-01-01T00:15:00.638Z,0.225
2023-01-01T00:16:00.660Z,0.270
2023-01-01T00:17:00.742Z,0.225
2023-01-01T00:18:00.777Z,0.225
2023-01-01T00:19:00.642Z,0.225
2023-01-01T00:20:00.664Z,0.225
2023-01-01T00:21:00.635Z,0.225
2023-01-01T00:22:05.653Z,0.225
2023-01-01T00:23:00.647Z,0.225
2023-01-01T00:24:00.865Z,0.225
2023-01-01T00:25:00.706Z,0.225
2023-01-01T00:26:00.664Z,0.225
2023-01-01T00:27:00.717Z,0.225
2023-01-01T00:28:00.617Z,0.225
2023-01-01T00:29:00.711Z,0.225
2023-01-01T00:30:01.090Z,0.225
2023-01-01T00:31:00.692Z,0.225
2023-01-01T00:32:00.807Z,0.225
2023-01-01T00:33:00.637Z,0.270
2023-01-01T00:34:01.450Z,0.225
2023-01-01T00:35:00.652Z,0.270
2023-01-01T00:36:00.809Z,0.225
2023-01-01T00:37:00.637Z,0.225
2023-01-01T00:38:00.635Z,0.225
2023-01-01T00:39:00.644Z,0.270
2023-01-01T00:40:00.642Z,0.225
2023-01-01T00:41:00.696Z,0.225
2023-01-01T00:42:00.839Z,0.225
2023-01-01T00:43:00.608Z,0.225
2023-01-01T00:44:00.605Z,0.225
2023-01-01T00:45:00.674Z,0.225
2023-01-01T00:46:00.729Z,0.225
2023-01-01T00:47:00.727Z,0.225
2023-01-01T00:48:00.824Z,0.225
2023-01-01T00:49:00.727Z,0.315
2023-01-01T00:50:00.667Z,0.225
2023-01-01T00:51:00.711Z,0.225
2023-01-01T00:52:00.631Z,0.225
2023-01-01T00:53:00.645Z,0.225
2023-01-01T00:54:00.883Z,0.225
2023-01-01T00:55:00.653Z,0.225
2023-01-01T00:56:00.687Z,0.225
2023-01-01T00:57:00.767Z,0.225
2023-01-01T00:58:00.657Z,0.225
2023-01-01T00:59:01.706Z,0.225
2023-01-01T01:00:00.807Z,0.225
2023-01-01T01:01:00.768Z,0.225
2023-01-01T01:02:00.822Z,0.225
2023-01-01T01:03:00.657Z,0.225
2023-01-01T01:04:00.635Z,0.225
2023-01-01T01:05:00.655Z,0.225
2023-01-01T01:06:00.737Z,0.225
2023-01-01T01:07:00.651Z,0.225
2023-01-01T01:08:00.632Z,0.225
2023-01-01T01:09:00.671Z,0.225
2023-01-01T01:10:00.631Z,0.270
2023-01-01T01:11:00.652Z,0.270
2023-01-01T01:12:17.811Z,0.225
2023-01-01T01:13:00.668Z,0.225
2023-01-01T01:14:00.723Z,0.225
2023-01-01T01:15:00.653Z,0.225
2023-01-01T01:16:00.650Z,0.225
2023-01-01T01:17:00.691Z,0.270
2023-01-01T01:18:00.764Z,0.225
2023-01-01T01:19:00.702Z,0.270
2023-01-01T01:20:00.697Z,0.225
2023-01-01T01:21:00.612Z,0.225
2023-01-01T01:22:00.675Z,0.225
2023-01-01T01:23:00.652Z,0.225
2023-01-01T01:24:00.774Z,0.225
2023-01-01T01:25:00.603Z,0.225
2023-01-01T01:26:00.680Z,0.225
2023-01-01T01:27:00.797Z,0.225
2023-01-01T01:28:00.628Z,0.225
2023-01-01T01:29:00.664Z,0.225
2023-01-01T01:30:00.834Z,0.225
2023-01-01T01:31:00.667Z,0.225
2023-01-01T01:32:00.632Z,0.225
2023-01-01T01:33:00.711Z,0.270
2023-01-01T01:34:00.627Z,0.270
2023-01-01T01:35:00.714Z,0.225
2023-01-01T01:36:00.766Z,0.225
2023-01-01T01:37:00.636Z,0.225
2023-01-01T01:38:00.717Z,0.225
2023-01-01T01:39:00.758Z,0.225
2023-01-01T01:40:00.639Z,0.225
2023-01-01T01:41:00.666Z,0.270
2023-01-01T01:42:00.900Z,0.225
2023-01-01T01:43:00.677Z,0.225
2023-01-01T01:44:00.681Z,0.225
2023-01-01T01:45:00.702Z,0.225
2023-01-01T01:46:00.764Z,0.225
2023-01-01T01:47:00.664Z,0.225
2023-01-01T01:48:00.763Z,0.225
2023-01-01T01:49:00.744Z,0.225
2023-01-01T01:50:00.615Z,0.225
2023-01-01T01:51:00.644Z,0.225
2023-01-01T01:52:00.648Z,0.225
2023-01-01T01:53:00.634Z,0.225
2023-01-01T01:54:00.778Z,0.225
2023-01-01T01:55:00.644Z,0.225
2023-01-01T01:56:00.650Z,0.225
2023-01-01T01:57:00.795Z,0.225
2023-01-01T01:58:00.749Z,0.225
2023-01-01T01:59:00.606Z,0.225
2023-01-01T02:00:05.233Z,0.225
2023-01-01T02:01:00.914Z,0.225
2023-01-01T02:02:00.804Z,0.225
2023-01-01T02:03:00.700Z,0.225
2023-01-01T02:04:00.673Z,0.225
2023-01-01T02:05:00.628Z,0.225
2023-01-01T02:06:00.924Z,0.225
2023-01-01T02:07:00.661Z,0.225
2023-01-01T02:08:00.650Z,0.225
2023-01-01T02:09:00.667Z,0.225
2023-01-01T02:10:00.634Z,0.225
2023-01-01T02:11:00.607Z,0.225
2023-01-01T02:12:00.800Z,0.225
2023-01-01T02:13:00.631Z,0.225
2023-01-01T02:14:00.636Z,0.225
2023-01-01T02:15:00.661Z,0.225
2023-01-01T02:16:00.643Z,0.225
2023-01-01T02:17:00.633Z,0.225
2023-01-01T02:18:00.802Z,0.225
2023-01-01T02:19:00.632Z,0.225
2023-01-01T02:20:00.661Z,0.225
2023-01-01T02:21:00.651Z,0.225
2023-01-01T02:22:00.646Z,0.225
2023-01-01T02:23:04.257Z,0.225
2023-01-01T02:24:00.738Z,0.225
2023-01-01T02:25:00.660Z,0.225
2023-01-01T02:26:00.684Z,0.225
2023-01-01T02:27:00.667Z,0.225
2023-01-01T02:28:00.755Z,0.225
2023-01-01T02:29:00.661Z,0.225
2023-01-01T02:30:00.780Z,0.225
2023-01-01T02:31:00.722Z,0.225
2023-01-01T02:32:00.679Z,0.225
2023-01-01T02:33:00.723Z,0.225
2023-01-01T02:34:00.662Z,0.225
2023-01-01T02:35:00.692Z,0.225
2023-01-01T02:36:00.811Z,0.225
2023-01-01T02:37:00.668Z,0.225
2023-01-01T02:38:00.682Z,0.225
2023-01-01T02:39:00.707Z,0.225
2023-01-01T02:40:00.701Z,0.225
2023-01-01T02:41:00.623Z,0.225
2023-01-01T02:42:00.721Z,0.225
2023-01-01T02:43:00.933Z,0.225
2023-01-01T02:45:00.644Z,0.225
2023-01-01T02:46:00.701Z,0.225
2023-01-01T02:47:00.653Z,0.225
2023-01-01T02:48:00.742Z,0.225
2023-01-01T02:49:06.204Z,0.225
2023-01-01T02:50:00.602Z,0.225
2023-01-01T02:51:00.679Z,0.225
2023-01-01T02:52:00.617Z,0.225
2023-01-01T02:53:00.677Z,0.225
2023-01-01T02:54:00.767Z,0.225
2023-01-01T02:55:00.707Z,0.225
2023-01-01T02:56:00.710Z,0.225
2023-01-01T02:57:00.727Z,0.225
2023-01-01T02:58:00.773Z,0.225
2023-01-01T02:59:00.663Z,0.225
2023-01-01T03:00:00.741Z,0.225
2023-01-01T03:01:00.780Z,0.225
2023-01-01T03:02:00.831Z,0.225
2023-01-01T03:03:00.787Z,0.225
2023-01-01T03:04:00.686Z,0.225
2023-01-01T03:05:00.739Z,0.225
2023-01-01T03:06:00.938Z,0.225
2023-01-01T03:07:00.643Z,0.225
2023-01-01T03:08:00.649Z,0.225
2023-01-01T03:09:00.654Z,0.225
2023-01-01T03:10:00.667Z,0.225
2023-01-01T03:11:00.649Z,0.225
2023-01-01T03:12:00.773Z,0.225
2023-01-01T03:13:00.689Z,0.225
2023-01-01T03:14:00.636Z,0.225
2023-01-01T03:15:00.607Z,0.225
2023-01-01T03:16:00.752Z,0.225
2023-01-01T03:17:00.614Z,0.225
2023-01-01T03:18:00.763Z,0.225
2023-01-01T03:19:00.608Z,0.225
2023-01-01T03:20:00.633Z,0.225
2023-01-01T03:21:00.609Z,0.225
2023-01-01T03:22:00.676Z,0.225
2023-01-01T03:23:00.641Z,0.225
2023-01-01T03:24:00.729Z,0.225
2023-01-01T03:25:00.607Z,0.225
2023-01-01T03:26:00.713Z,0.225
2023-01-01T03:27:00.680Z,0.225
2023-01-01T03:28:00.757Z,0.225
2023-01-01T03:29:00.676Z,0.225
2023-01-01T03:30:00.869Z,0.225
2023-01-01T03:31:00.756Z,0.225
2023-01-01T03:32:00.752Z,0.225
2023-01-01T03:33:00.687Z,0.225
2023-01-01T03:34:00.689Z,0.225
2023-01-01T03:35:00.641Z,0.225
2023-01-01T03:36:00.882Z,0.225
2023-01-01T03:37:00.657Z,0.270
2023-01-01T03:38:00.647Z,0.270
2023-01-01T03:39:00.671Z,0.270
2023-01-01T03:40:00.708Z,0.270
2023-01-01T03:41:00.680Z,0.270
2023-01-01T03:42:00.783Z,0.270
2023-01-01T03:43:00.767Z,0.270
2023-01-01T03:44:00.863Z,0.315
2023-01-01T03:45:00.656Z,0.315
2023-01-01T03:46:00.609Z,0.360
2023-01-01T03:47:00.701Z,0.405
2023-01-01T03:48:00.855Z,0.180
2023-01-01T03:49:04.094Z,0.270
2023-01-01T03:50:00.654Z,0.270
2023-01-01T03:51:00.661Z,0.360
2023-01-01T03:52:00.668Z,0.405
2023-01-01T03:53:00.611Z,0.450
2023-01-01T03:54:00.783Z,0.585
2023-01-01T03:55:00.690Z,0.765
2023-01-01T03:56:00.650Z,0.900
2023-01-01T03:57:00.656Z,1.125
2023-01-01T03:58:00.722Z,1.395
2023-01-01T03:59:00.761Z,1.755
2023-01-01T04:00:00.800Z,2.070
2023-01-01T04:01:00.782Z,2.655
2023-01-01T04:02:00.765Z,3.285
2023-01-01T04:03:00.765Z,3.960
2023-01-01T04:04:00.639Z,4.815
2023-01-01T04:05:00.664Z,5.805
2023-01-01T04:06:00.720Z,7.020
2023-01-01T04:07:14.285Z,8.550
2023-01-01T04:08:00.676Z,10.395
2023-01-01T04:09:00.609Z,12.690
2023-01-01T04:10:00.624Z,15.300
2023-01-01T04:11:00.615Z,18.360
2023-01-01T04:12:00.822Z,21.780
2023-01-01T04:13:00.669Z,25.740
2023-01-01T04:14:00.806Z,30.060
2023-01-01T04:15:00.674Z,34.920
2023-01-01T04:16:00.724Z,39.780
2023-01-01T04:17:00.706Z,45.360
2023-01-01T04:18:00.794Z,51.120
2023-01-01T04:19:00.642Z,57.240
2023-01-01T04:20:00.646Z,63.720
2023-01-01T04:21:00.658Z,70.560
2023-01-01T04:22:00.639Z,78.120
2023-01-01T04:23:00.680Z,85.320
2023-01-01T04:24:00.810Z,93.600
2023-01-01T04:25:00.665Z,102.240
2023-01-01T04:26:00.678Z,111.600
2023-01-01T04:27:00.645Z,123.840
2023-01-01T04:28:00.658Z,136.800
2023-01-01T04:29:00.774Z,149.040
2023-01-01T04:30:00.772Z,164.160
2023-01-01T04:32:00.605Z,194.400
2023-01-01T04:33:00.689Z,210.240
2023-01-01T04:34:00.740Z,226.080
2023-01-01T04:35:00.702Z,243.360
2023-01-01T04:36:00.817Z,260.640
2023-01-01T04:37:00.634Z,280.800
2023-01-01T04:38:00.619Z,303.840
2023-01-01T04:39:00.639Z,336.960
2023-01-01T04:40:00.641Z,377.280
2023-01-01T04:41:00.645Z,420.480
2023-01-01T04:42:00.784Z,457.920
2023-01-01T04:43:00.645Z,504.000
2023-01-01T04:44:00.783Z,538.560
2023-01-01T04:45:00.671Z,532.800
2023-01-01T04:46:00.764Z,501.120
2023-01-01T04:47:00.638Z,506.880
2023-01-01T04:48:00.723Z,529.920
2023-01-01T04:49:00.638Z,552.960
2023-01-01T04:50:00.663Z,576.000
2023-01-01T04:51:00.637Z,599.040
2023-01-01T04:52:00.642Z,622.080
2023-01-01T04:53:00.648Z,645.120
2023-01-01T04:54:00.810Z,668.160
2023-01-01T04:55:00.742Z,688.320
2023-01-01T04:56:00.767Z,708.480
2023-01-01T04:57:00.665Z,731.520
2023-01-01T04:58:00.699Z,748.800
2023-01-01T04:59:00.768Z,754.560
2023-01-01T05:00:00.821Z,743.040
2023-01-01T05:01:00.823Z,748.800
2023-01-01T05:02:00.858Z,777.600
2023-01-01T05:03:00.750Z,812.160
2023-01-01T05:04:00.778Z,840.960
2023-01-01T05:05:00.644Z,852.480
2023-01-01T05:06:00.867Z,875.520
2023-01-01T05:07:00.710Z,910.080
2023-01-01T05:08:00.634Z,956.160
2023-01-01T05:09:00.685Z,984.960
2023-01-01T05:10:00.636Z,1008.000
2023-01-01T05:11:00.608Z,1065.600
2023-01-01T05:12:00.828Z,1054.080
2023-01-01T05:13:00.636Z,1013.760
2023-01-01T05:14:00.661Z,961.920
2023-01-01T05:15:00.755Z,938.880
2023-01-01T05:16:00.619Z,979.200
2023-01-01T05:17:00.647Z,1013.760
2023-01-01T05:18:00.794Z,1042.560
2023-01-01T05:19:00.678Z,1088.640
2023-01-01T05:20:00.639Z,1140.480
2023-01-01T05:21:00.696Z,1198.080
2023-01-01T05:22:05.363Z,1226.880
2023-01-01T05:23:00.691Z,1249.920
2023-01-01T05:24:00.847Z,1267.200
2023-01-01T05:25:00.695Z,1301.760
2023-01-01T05:26:00.712Z,1359.360
2023-01-01T05:27:00.640Z,1393.920
2023-01-01T05:28:00.649Z,1416.960
2023-01-01T05:29:00.662Z,1457.280
2023-01-01T05:30:00.923Z,1497.600
2023-01-01T05:31:00.657Z,1543.680
2023-01-01T05:32:00.697Z,1555.200
2023-01-01T05:33:00.637Z,1601.280
2023-01-01T05:35:00.632Z,1728.000
2023-01-01T05:36:00.739Z,1785.600
2023-01-01T05:37:00.667Z,2338.560
2023-01-01T05:38:00.601Z,4078.080
2023-01-01T05:39:00.647Z,5852.160
2023-01-01T05:40:00.660Z,7280.640
2023-01-01T05:41:00.648Z,8064.000
2023-01-01T05:42:00.830Z,8432.640
2023-01-01T05:43:00.642Z,8709.120
2023-01-01T05:44:00.665Z,8893.440
2023-01-01T05:45:00.768Z,8847.360
2023-01-01T05:46:00.771Z,8570.880
2023-01-01T05:47:00.639Z,8709.120
2023-01-01T05:48:00.967Z,9768.960
2023-01-01T05:49:00.786Z,10091.520
2023-01-01T05:50:00.795Z,10275.840
2023-01-01T05:51:00.624Z,10598.400
2023-01-01T05:52:00.636Z,10874.880
2023-01-01T05:53:00.715Z,10920.960
2023-01-01T05:54:00.768Z,10828.800
2023-01-01T05:55:00.643Z,10874.880
2023-01-01T05:56:00.667Z,11105.280
2023-01-01T05:57:00.691Z,11151.360
2023-01-01T05:58:00.741Z,11151.360
2023-01-01T05:59:00.723Z,11197.440
2023-01-01T06:00:00.854Z,11381.760
2023-01-01T06:01:00.825Z,11612.160
2023-01-01T06:02:00.721Z,11888.640
2023-01-01T06:03:00.641Z,12072.960
2023-01-01T06:04:00.755Z,12165.120
2023-01-01T06:05:00.680Z,12349.440
2023-01-01T06:06:00.756Z,12441.600
2023-01-01T06:07:00.654Z,12533.760
2023-01-01T06:08:01.048Z,12533.760
2023-01-01T06:09:00.952Z,12625.920
2023-01-01T06:10:00.810Z,12718.080
2023-01-01T06:11:00.734Z,12718.080
2023-01-01T06:12:00.804Z,12902.400
2023-01-01T06:13:00.666Z,12718.080
2023-01-01T06:14:00.636Z,12994.560
2023-01-01T06:15:00.609Z,13271.040
2023-01-01T06:16:00.805Z,13363.200
2023-01-01T06:17:00.707Z,13455.360
2023-01-01T06:18:00.723Z,13363.200
2023-01-01T06:19:00.707Z,13363.200
2023-01-01T06:20:00.640Z,11427.840
2023-01-01T06:21:00.656Z,6405.120
2023-01-01T06:22:00.643Z,2810.880
2023-01-01T06:23:00.825Z,2661.120
2023-01-01T06:24:00.896Z,2638.080
2023-01-01T06:25:00.715Z,2615.040
2023-01-01T06:26:00.669Z,2615.040
2023-01-01T06:27:00.753Z,2603.520
2023-01-01T06:28:00.705Z,2603.520
2023-01-01T06:29:00.715Z,2603.520
2023-01-01T06:30:00.863Z,2603.520
2023-01-01T06:31:00.778Z,2615.040
2023-01-01T06:32:00.738Z,2626.560
2023-01-01T06:33:00.605Z,2649.600
2023-01-01T06:34:00.660Z,2672.640
2023-01-01T06:35:00.635Z,2695.680
2023-01-01T06:36:00.829Z,2707.200
2023-01-01T06:37:06.501Z,2695.680
2023-01-01T06:38:00.634Z,2684.160
2023-01-01T06:39:00.615Z,2672.640
2023-01-01T06:40:00.735Z,2684.160
2023-01-01T06:41:00.712Z,2718.720
2023-01-01T06:42:00.906Z,2730.240
2023-01-01T06:43:00.633Z,2718.720
2023-01-01T06:44:00.674Z,2718.720
2023-01-01T06:45:00.622Z,2764.800
2023-01-01T06:46:00.642Z,2787.840
2023-01-01T06:47:00.815Z,2799.360
2023-01-01T06:48:00.787Z,2799.360
2023-01-01T06:49:00.643Z,2822.400
2023-01-01T06:50:00.693Z,2833.920
2023-01-01T06:51:00.726Z,2833.920
2023-01-01T06:52:00.620Z,2845.440
2023-01-01T06:53:00.758Z,2845.440
2023-01-01T06:54:00.784Z,2868.480
2023-01-01T06:55:00.676Z,2845.440
2023-01-01T06:56:00.739Z,2810.880
2023-01-01T06:57:00.825Z,2810.880
2023-01-01T06:58:00.846Z,2856.960
2023-01-01T06:59:00.825Z,2868.480
2023-01-01T07:00:01.012Z,2868.480
2023-01-01T07:01:06.335Z,2868.480
2023-01-01T07:02:01.518Z,2868.480
2023-01-01T07:03:00.922Z,2868.480
2023-01-01T07:04:00.700Z,2880.000
2023-01-01T07:05:00.691Z,2891.520
2023-01-01T07:06:00.808Z,2914.560
2023-01-01T07:07:00.618Z,2926.080
2023-01-01T07:08:00.637Z,2937.600
2023-01-01T07:09:00.679Z,2949.120
2023-01-01T07:10:00.664Z,2949.120
2023-01-01T07:11:00.676Z,2949.120
2023-01-01T07:12:00.781Z,2972.160
2023-01-01T07:13:00.709Z,2972.160
2023-01-01T07:14:00.680Z,2995.200
2023-01-01T07:15:00.637Z,2995.200
2023-01-01T07:16:00.825Z,2995.200
2023-01-01T07:17:00.740Z,2995.200
2023-01-01T07:18:00.807Z,2995.200
2023-01-01T07:19:00.640Z,2995.200
2023-01-01T07:20:00.652Z,3018.240
2023-01-01T07:21:00.643Z,3018.240
2023-01-01T07:22:00.639Z,3041.280
2023-01-01T07:23:00.638Z,3064.320
2023-01-01T07:24:00.849Z,3087.360
2023-01-01T07:25:00.731Z,3087.360
2023-01-01T07:26:00.667Z,3110.400
2023-01-01T07:27:00.695Z,3133.440
2023-01-01T07:28:00.734Z,3133.440
2023-01-01T07:29:06.905Z,3156.480
2023-01-01T07:30:00.775Z,3156.480
2023-01-01T07:31:00.704Z,3156.480
2023-01-01T07:32:00.709Z,3110.400
2023-01-01T07:33:00.830Z,3179.520
2023-01-01T07:34:00.931Z,3179.520
2023-01-01T07:35:00.680Z,3179.520
2023-01-01T07:36:00.799Z,3225.600
2023-01-01T07:37:00.682Z,3225.600
2023-01-01T07:38:00.672Z,3248.640
2023-01-01T07:39:00.660Z,3248.640
2023-01-01T07:40:00.683Z,3248.640
2023-01-01T07:41:00.751Z,3271.680
2023-01-01T07:42:04.862Z,3294.720
2023-01-01T07:43:00.639Z,3294.720
2023-01-01T07:44:00.644Z,3317.760
2023-01-01T07:45:00.649Z,3340.800
2023-01-01T07:46:00.702Z,3363.840
2023-01-01T07:47:00.613Z,3363.840
2023-01-01T07:48:00.890Z,3386.880
2023-01-01T07:49:00.735Z,3386.880
2023-01-01T07:50:00.669Z,3409.920
2023-01-01T07:51:00.662Z,3409.920
2023-01-01T07:52:00.663Z,3409.920
2023-01-01T07:53:00.643Z,3432.960
2023-01-01T07:54:06.639Z,3456.000
2023-01-01T07:55:00.658Z,3432.960
2023-01-01T07:56:00.630Z,3432.960
2023-01-01T07:57:00.620Z,3432.960
2023-01-01T07:58:00.663Z,3409.920
2023-01-01T07:59:00.683Z,3432.960
2023-01-01T08:00:00.781Z,3456.000
2023-01-01T08:01:00.732Z,3502.080
2023-01-01T08:02:00.732Z,3525.120
2023-01-01T08:03:00.851Z,3525.120
2023-01-01T08:04:00.815Z,3548.160
2023-01-01T08:05:00.808Z,3548.160
2023-01-01T08:06:00.788Z,3548.160
2023-01-01T08:07:00.605Z,3525.120
2023-01-01T08:08:00.643Z,3479.040
2023-01-01T08:09:00.619Z,3479.040
2023-01-01T08:10:00.677Z,3456.000
2023-01-01T08:11:03.786Z,3432.960
2023-01-01T08:12:00.763Z,3409.920
2023-01-01T08:13:00.713Z,3409.920
2023-01-01T08:14:00.673Z,3409.920
2023-01-01T08:15:00.753Z,3456.000
2023-01-01T08:16:00.884Z,3502.080
2023-01-01T08:17:00.637Z,3548.160
2023-01-01T08:18:00.818Z,3617.280
2023-01-01T08:19:00.692Z,3663.360
2023-01-01T08:20:00.908Z,3709.440
2023-01-01T08:21:00.639Z,3732.480
2023-01-01T08:22:00.675Z,3801.600
2023-01-01T08:23:06.603Z,3824.640
2023-01-01T08:24:00.791Z,3824.640
2023-01-01T08:25:00.676Z,3824.640
2023-01-01T08:26:00.653Z,3824.640
2023-01-01T08:27:00.645Z,3916.800
2023-01-01T08:28:00.636Z,4078.080
2023-01-01T08:29:00.677Z,4423.680
2023-01-01T08:30:00.754Z,8386.560
2023-01-01T08:31:00.812Z,17786.881
2023-01-01T08:32:00.618Z,21657.600
2023-01-01T08:33:01.086Z,22394.881
2023-01-01T08:34:00.642Z,21657.600
2023-01-01T08:35:00.847Z,22394.881
2023-01-01T08:36:00.750Z,22302.721
2023-01-01T08:37:00.632Z,22394.881
2023-01-01T08:38:00.632Z,22302.721
2023-01-01T08:39:00.644Z,21749.760
2023-01-01T08:40:00.662Z,23592.961
2023-01-01T08:41:00.622Z,23500.801
2023-01-01T08:42:00.758Z,24145.920
2023-01-01T08:43:00.612Z,23961.600
2023-01-01T08:44:00.637Z,24514.561
2023-01-01T08:45:00.672Z,24330.240
2023-01-01T08:46:00.644Z,24330.240
2023-01-01T08:47:00.725Z,23961.600
2023-01-01T08:48:00.839Z,23592.961
2023-01-01T08:49:00.678Z,23777.279
2023-01-01T08:50:00.948Z,23592.961
2023-01-01T08:51:00.657Z,22947.840
2023-01-01T08:52:00.792Z,23408.641
2023-01-01T08:53:00.732Z,24514.561
2023-01-01T08:54:00.957Z,24330.240
2023-01-01T08:55:00.697Z,24145.920
2023-01-01T08:56:00.653Z,24330.240
2023-01-01T08:57:00.624Z,24514.561
2023-01-01T08:58:00.694Z,24330.240
2023-01-01T08:59:04.085Z,24514.561
2023-01-01T09:00:00.813Z,24698.881
2023-01-01T09:01:00.651Z,24698.881
2023-01-01T09:02:00.895Z,24698.881
2023-01-01T09:03:00.773Z,24698.881
2023-01-01T09:04:00.740Z,24514.561
2023-01-01T09:05:00.857Z,24883.199
2023-01-01T09:06:00.915Z,24698.881
2023-01-01T09:07:00.682Z,24698.881
2023-01-01T09:08:00.680Z,24883.199
2023-01-01T09:09:00.809Z,24514.561
2023-01-01T09:10:00.722Z,24698.881
2023-01-01T09:11:00.652Z,24698.881
2023-01-01T09:12:00.821Z,24330.240
2023-01-01T09:13:00.700Z,24883.199
2023-01-01T09:14:00.907Z,24514.561
2023-01-01T09:15:00.815Z,24883.199
2023-01-01T09:16:00.823Z,24698.881
2023-01-01T09:17:00.665Z,23777.279
2023-01-01T09:18:00.867Z,23592.961
2023-01-01T09:19:00.650Z,24330.240
2023-01-01T09:20:00.883Z,24514.561
2023-01-01T09:21:00.971Z,24514.561
2023-01-01T09:22:00.696Z,23592.961
2023-01-01T09:23:05.628Z,24330.240
2023-01-01T09:24:00.874Z,24145.920
2023-01-01T09:25:00.660Z,24514.561
2023-01-01T09:26:00.698Z,24330.240
2023-01-01T09:27:00.714Z,24514.561
2023-01-01T09:28:00.732Z,24145.920
2023-01-01T09:29:00.699Z,24330.240
2023-01-01T09:30:00.956Z,24698.881
2023-01-01T09:31:00.718Z,24883.199
2023-01-01T09:32:00.799Z,24698.881
2023-01-01T09:33:00.626Z,24698.881
2023-01-01T09:34:00.754Z,24330.240
2023-01-01T09:35:00.679Z,24698.881
2023-01-01T09:36:00.836Z,24514.561
2023-01-01T09:37:00.768Z,24698.881
2023-01-01T09:38:00.637Z,24698.881
2023-01-01T09:39:00.670Z,24514.561
2023-01-01T09:40:00.696Z,24514.561
2023-01-01T09:41:00.690Z,24698.881
2023-01-01T09:42:00.799Z,24330.240
2023-01-01T09:43:00.711Z,24330.240
2023-01-01T09:44:00.641Z,24330.240
2023-01-01T09:45:00.655Z,24330.240
2023-01-01T09:46:00.666Z,24145.920
2023-01-01T09:47:00.656Z,24330.240
2023-01-01T09:48:00.747Z,24330.240
2023-01-01T09:49:00.640Z,24330.240
2023-01-01T09:50:00.695Z,24145.920
2023-01-01T09:51:01.090Z,24330.240
2023-01-01T09:52:00.779Z,24330.240
2023-01-01T09:53:00.612Z,24698.881
2023-01-01T09:54:00.781Z,24514.561
2023-01-01T09:55:00.666Z,24145.920
2023-01-01T09:56:00.729Z,24330.240
2023-01-01T09:57:00.735Z,24698.881
2023-01-01T09:58:00.815Z,24883.199
2023-01-01T09:59:00.670Z,25251.840
2023-01-01T10:00:00.887Z,25436.160
2023-01-01T10:01:00.783Z,26173.439
2023-01-01T10:02:00.861Z,27648.000
2023-01-01T10:03:00.746Z,29675.520
2023-01-01T10:04:00.701Z,34467.840
2023-01-01T10:05:00.657Z,39628.801
2023-01-01T10:06:00.930Z,44421.121
2023-01-01T10:07:00.775Z,49029.121
2023-01-01T10:08:00.700Z,53452.801
2023-01-01T10:09:00.706Z,57507.840
2023-01-01T10:10:00.668Z,59719.680
2023-01-01T10:11:00.937Z,62300.160
2023-01-01T10:12:01.185Z,63406.078
2023-01-01T10:13:00.858Z,64512.000
2023-01-01T10:14:01.019Z,64512.000
2023-01-01T10:15:01.250Z,64143.359
2023-01-01T10:16:01.022Z,63774.719
2023-01-01T10:17:01.000Z,63406.078
2023-01-01T10:18:01.030Z,62668.801
2023-01-01T10:19:00.942Z,62300.160
2023-01-01T10:20:01.060Z,62300.160
2023-01-01T10:21:00.861Z,61562.879
2023-01-01T10:22:01.200Z,59719.680
2023-01-01T10:23:01.063Z,55296.000
2023-01-01T10:24:01.410Z,50135.039
2023-01-01T10:25:00.686Z,43683.840
2023-01-01T10:26:00.649Z,36679.680
2023-01-01T10:27:00.663Z,30044.160
2023-01-01T10:28:00.611Z,25989.119
2023-01-01T10:29:00.709Z,23961.600
2023-01-01T10:30:04.358Z,23316.480
2023-01-01T10:31:00.694Z,23040.000
2023-01-01T10:32:00.746Z,22487.039
2023-01-01T10:33:00.614Z,21934.080
2023-01-01T10:34:00.684Z,21934.080
2023-01-01T10:35:00.671Z,21934.080
2023-01-01T10:36:00.808Z,21657.600
2023-01-01T10:37:01.168Z,21565.439
2023-01-01T10:38:00.731Z,21473.279
2023-01-01T10:39:00.639Z,21749.760
2023-01-01T10:40:00.644Z,22118.400
2023-01-01T10:41:00.667Z,22487.039
2023-01-01T10:42:00.816Z,22671.359
2023-01-01T10:43:00.651Z,22118.400
2023-01-01T10:44:00.611Z,22026.240
2023-01-01T10:45:00.756Z,21473.279
2023-01-01T10:46:00.745Z,21196.801
2023-01-01T10:47:00.679Z,21565.439
2023-01-01T10:48:00.948Z,21841.920
2023-01-01T10:49:00.679Z,21657.600
2023-01-01T10:50:00.672Z,22210.561
2023-01-01T10:51:00.811Z,22763.520
2023-01-01T10:52:01.095Z,23316.480
2023-01-01T10:53:00.634Z,24698.881
2023-01-01T10:54:01.012Z,25989.119
2023-01-01T10:55:00.675Z,27648.000
2023-01-01T10:56:00.640Z,29306.881
2023-01-01T10:57:00.645Z,31150.080
2023-01-01T10:58:00.643Z,32993.281
2023-01-01T10:59:00.643Z,30044.160
2023-01-01T11:00:01.332Z,30228.480
2023-01-01T11:01:00.958Z,36126.719
2023-01-01T11:02:00.896Z,36864.000
2023-01-01T11:03:00.680Z,35573.762
2023-01-01T11:04:00.669Z,33914.879
2023-01-01T11:05:04.274Z,32071.680
2023-01-01T11:06:01.080Z,30597.119
2023-01-01T11:07:01.017Z,27648.000
2023-01-01T11:08:00.692Z,25620.480
2023-01-01T11:09:00.717Z,24514.561
2023-01-01T11:10:03.701Z,22026.240
2023-01-01T11:11:00.753Z,20275.199
2023-01-01T11:12:07.122Z,18800.641
2023-01-01T11:13:05.539Z,15851.520
2023-01-01T11:14:00.641Z,14929.920
2023-01-01T11:15:00.704Z,20183.039
2023-01-01T11:16:00.680Z,21657.600
2023-01-01T11:17:00.735Z,20920.320
2023-01-01T11:18:01.002Z,16128.000
2023-01-01T11:19:00.831Z,9861.120
2023-01-01T11:20:02.437Z,4515.840
2023-01-01T11:21:00.779Z,2972.160
2023-01-01T11:22:00.982Z,2891.520
2023-01-01T11:23:00.631Z,2845.440
2023-01-01T11:24:00.975Z,2822.400
2023-01-01T11:25:00.728Z,2810.880
2023-01-01T11:26:00.675Z,2799.360
2023-01-01T11:27:00.723Z,2787.840
2023-01-01T11:28:00.684Z,2764.800
2023-01-01T11:29:00.657Z,2741.760
2023-01-01T11:30:00.872Z,2707.200
2023-01-01T11:31:00.734Z,2695.680
2023-01-01T11:32:00.979Z,2684.160
2023-01-01T11:33:00.716Z,2661.120
2023-01-01T11:34:00.687Z,2649.600
2023-01-01T11:35:00.730Z,2638.080
2023-01-01T11:36:00.892Z,2603.520
2023-01-01T11:37:00.772Z,2592.000
2023-01-01T11:38:00.808Z,2580.480
2023-01-01T11:39:00.651Z,2568.960
2023-01-01T11:40:00.691Z,2557.440
2023-01-01T11:41:00.682Z,2545.920
2023-01-01T11:42:00.847Z,2522.880
2023-01-01T11:43:00.677Z,2511.360
2023-01-01T11:44:00.739Z,2499.840
2023-01-01T11:45:00.701Z,2476.800
2023-01-01T11:46:00.755Z,2442.240
2023-01-01T11:47:00.692Z,2419.200
2023-01-01T11:48:00.880Z,2384.640
2023-01-01T11:49:00.713Z,2327.040
2023-01-01T11:50:00.898Z,2304.000
2023-01-01T11:51:00.676Z,2280.960
2023-01-01T11:52:00.953Z,2257.920
2023-01-01T11:53:00.644Z,2234.880
2023-01-01T11:54:00.878Z,2211.840
2023-01-01T11:55:00.904Z,2200.320
2023-01-01T11:56:00.640Z,2188.800
2023-01-01T11:57:00.658Z,2165.760
2023-01-01T11:58:00.639Z,2142.720
2023-01-01T11:59:00.645Z,2119.680
2023-01-01T12:00:01.015Z,2096.640
2023-01-01T12:01:00.661Z,2085.120
2023-01-01T12:02:00.613Z,2073.600
2023-01-01T12:03:00.704Z,2039.040
2023-01-01T12:04:00.725Z,2016.000
2023-01-01T12:05:00.632Z,1992.960